ENHS weather

Hokksund Airfield
Buskerud, Norway

Public forecast

Using degrees Celsius for public forecast. Weather courtesy of forecast.io.

Closest aviation weather report (METAR) to Hokksund Airfield

Closest report is Oslo, Fornebu Airport, 22.7 nm (42.0 km) ENE. Retrieved 2020/06/05 01:20 UTC (35 minutes ago):

ENFB 050120Z AUTO 03012KT 9999NDV -RA FEW007/// BKN050/// 08/07 Q0993 W///S4

Closest aviation forecast (TAF) to Hokksund Airfield

Closest forecast is Moss Airport, Rygge, 35.3 nm (65.5 km) SE. Retrieved 2020-06-05 00:57 UTC (58 minutes ago):

TAF ENRY 042300Z 0500/0524 10008KT 9999 FEW040 SCT070 TEMPO 0500/0515 10015G25KT PROB40 TEMPO 0510/0513 RA TEMPO 0513/0520 4000 SHRA BKN007 SCT020CB